Time;durP1;ratioP1;P1;durP2;ratioP2;P2;SDS_P1;SDS_P2;PMS_P1;PMS_P2;Temp;Humidity;BMP_temperature;BMP_pressure;BME280_temperature;BME280_humidity;BME280_pressure;Samples;Min_cycle;Max_cycle;Signal;HPM_P1;HPM_P2
2021/05/29 00:02:10;;;;;;;;;;;;;;;12.53;100.00;99765.16;5053292;28;19920;-63
2021/05/29 00:04:35;;;;;;;;;;;;;;;12.53;100.00;99775.47;5057769;28;19986;-62
2021/05/29 00:07:01;;;;;;;;;;;;;;;12.34;100.00;99774.31;5050772;28;19917;-64
2021/05/29 00:09:26;;;;;;;;;;;;;;;12.79;100.00;99766.16;5053521;28;20423;-64
2021/05/29 00:11:52;;;;;;;;;;;;;;;12.81;100.00;99768.69;5051842;28;19939;-64
2021/05/29 00:14:17;;;;;;;;;;;;;;;12.71;100.00;99770.69;5053969;28;20385;-62
2021/05/29 00:16:44;;;;;;;;;;;;;;;12.28;100.00;99764.13;5053739;28;19920;-64
2021/05/29 00:19:09;;;;;;;;;;;;;;;12.14;100.00;99764.50;5054500;28;19917;-64
2021/05/29 00:21:34;;;;;;;;;;;;;;;12.29;100.00;99766.69;5056105;28;19918;-63
2021/05/29 00:24:01;;;;;;;;;;;;;;;12.33;100.00;99764.84;5030840;28;19916;-64
2021/05/29 00:26:26;;;;;;;;;;;;;;;12.14;100.00;99760.19;5051064;28;19955;-64
2021/05/29 00:28:52;;;;;;;;;;;;;;;12.19;100.00;99764.38;5053735;28;19960;-64
2021/05/29 00:31:18;;;;;;;;;;;;;;;12.00;100.00;99764.84;5041496;28;19926;-64
2021/05/29 00:33:43;;;;;;;;;;;;;;;12.00;100.00;99759.69;4994527;28;19957;-64
2021/05/29 00:36:08;;;;;;;;;;;;;;;11.66;100.00;99757.91;5010713;28;19951;-64
2021/05/29 00:38:34;;;;;;;;;;;;;;;11.98;100.00;99753.72;5010319;28;19952;-64
2021/05/29 00:40:59;;;;;;;;;;;;;;;11.86;100.00;99759.13;5010410;28;20008;-64
2021/05/29 00:43:25;;;;;;;;;;;;;;;12.18;100.00;99758.38;5008814;28;20011;-64
2021/05/29 00:45:50;;;;;;;;;;;;;;;11.90;100.00;99758.22;5010569;28;19988;-64
2021/05/29 00:48:15;;;;;;;;;;;;;;;11.82;100.00;99760.13;4988794;28;20583;-64
2021/05/29 00:50:50;;;;;;;;;;;;;;;11.64;100.00;99757.09;4990324;28;19933;-64
2021/05/29 00:53:16;;;;;;;;;;;;;;;11.19;100.00;99749.56;5010074;28;19928;-64
2021/05/29 00:55:41;;;;;;;;;;;;;;;11.24;100.00;99750.31;5006164;28;20020;-64
2021/05/29 00:58:07;;;;;;;;;;;;;;;11.30;100.00;99752.72;5009309;28;20007;-64
2021/05/29 01:00:32;;;;;;;;;;;;;;;11.85;100.00;99747.13;5010363;28;20472;-64
2021/05/29 01:02:57;;;;;;;;;;;;;;;12.03;100.00;99754.44;5010850;28;19918;-64
2021/05/29 01:05:23;;;;;;;;;;;;;;;11.93;100.00;99758.16;5008914;28;19973;-64
2021/05/29 01:07:49;;;;;;;;;;;;;;;12.11;100.00;99765.44;5012209;28;19999;-64
2021/05/29 01:10:14;;;;;;;;;;;;;;;12.01;100.00;99761.38;4990919;28;19976;-64
2021/05/29 01:12:40;;;;;;;;;;;;;;;11.57;100.00;99770.19;5009115;28;20475;-64
2021/05/29 01:15:07;;;;;;;;;;;;;;;11.60;100.00;99764.97;5007387;28;20252;-64
2021/05/29 01:17:33;;;;;;;;;;;;;;;11.71;100.00;99762.97;4991793;28;19929;-64
2021/05/29 01:19:58;;;;;;;;;;;;;;;11.70;100.00;99772.44;4994806;28;20287;-64
2021/05/29 01:22:36;;;;;;;;;;;;;;;11.32;100.00;99769.91;5013707;28;19925;-64
2021/05/29 01:25:06;;;;;;;;;;;;;;;10.82;100.00;99770.97;4994920;28;20268;-64
2021/05/29 01:27:31;;;;;;;;;;;;;;;10.65;100.00;99766.16;5013009;28;20531;-64
2021/05/29 01:29:57;;;;;;;;;;;;;;;11.09;100.00;99766.97;4994680;28;19984;-64
2021/05/29 01:32:32;;;;;;;;;;;;;;;11.15;100.00;99773.69;5025944;28;19924;-63
2021/05/29 01:34:57;;;;;;;;;;;;;;;10.18;100.00;99785.06;5018470;28;20290;-64
2021/05/29 01:37:23;;;;;;;;;;;;;;;10.94;100.00;99781.91;5034353;28;19927;-64
2021/05/29 01:39:48;;;;;;;;;;;;;;;10.86;100.00;99785.50;5037283;28;19917;-64
2021/05/29 01:42:13;;;;;;;;;;;;;;;10.51;100.00;99775.03;5019184;28;20015;-64
2021/05/29 01:44:39;;;;;;;;;;;;;;;10.62;100.00;99783.41;5036241;28;19920;-64
2021/05/29 01:47:06;;;;;;;;;;;;;;;10.80;100.00;99783.03;5037489;28;19913;-64
2021/05/29 01:49:31;;;;;;;;;;;;;;;11.00;100.00;99779.22;5035980;28;19925;-63
2021/05/29 01:51:56;;;;;;;;;;;;;;;10.74;100.00;99772.88;5033161;28;20034;-64
2021/05/29 01:54:21;;;;;;;;;;;;;;;11.07;100.00;99780.75;5032049;28;19921;-64
2021/05/29 01:56:47;;;;;;;;;;;;;;;11.05;100.00;99782.53;5038003;28;20382;-64
2021/05/29 01:59:12;;;;;;;;;;;;;;;11.15;100.00;99784.00;5029882;28;19987;-64
2021/05/29 02:01:37;;;;;;;;;;;;;;;11.11;100.00;99779.81;5032645;28;19917;-64
2021/05/29 02:04:03;;;;;;;;;;;;;;;10.67;100.00;99772.16;5012569;28;19923;-62
2021/05/29 02:06:28;;;;;;;;;;;;;;;10.79;100.00;99771.03;5035273;28;19921;-64
2021/05/29 02:08:54;;;;;;;;;;;;;;;10.58;100.00;99766.31;5036381;28;20314;-64
2021/05/29 02:11:19;;;;;;;;;;;;;;;10.44;100.00;99770.00;5036030;28;19927;-64
2021/05/29 02:13:45;;;;;;;;;;;;;;;10.61;100.00;99764.53;5034700;28;19964;-63
2021/05/29 02:16:10;;;;;;;;;;;;;;;10.29;100.00;99764.31;5016429;28;20314;-64
2021/05/29 02:18:36;;;;;;;;;;;;;;;10.43;100.00;99773.47;5036364;28;20413;-64
2021/05/29 02:21:03;;;;;;;;;;;;;;;10.66;100.00;99764.44;5035697;28;19917;-63
2021/05/29 02:23:33;;;;;;;;;;;;;;;10.99;100.00;99769.75;5035565;28;20281;-64
2021/05/29 02:26:02;;;;;;;;;;;;;;;11.03;100.00;99763.66;5032199;28;19980;-64
2021/05/29 02:28:27;;;;;;;;;;;;;;;11.08;100.00;99765.28;5017382;28;19968;-64
2021/05/29 02:30:53;;;;;;;;;;;;;;;11.18;100.00;99768.50;5037154;28;20022;-64
2021/05/29 02:33:18;;;;;;;;;;;;;;;11.32;100.00;99767.34;5034636;28;20397;-64
2021/05/29 02:35:44;;;;;;;;;;;;;;;10.86;100.00;99772.59;5053276;28;21041;-63
2021/05/29 02:38:09;;;;;;;;;;;;;;;10.32;100.00;99765.09;5054484;28;20300;-64
2021/05/29 02:40:35;;;;;;;;;;;;;;;10.55;100.00;99768.94;5052249;28;20300;-64
2021/05/29 02:43:00;;;;;;;;;;;;;;;10.49;100.00;99772.50;5052929;28;20237;-64
2021/05/29 02:45:26;;;;;;;;;;;;;;;10.28;100.00;99768.56;5056497;28;19921;-64
2021/05/29 02:47:52;;;;;;;;;;;;;;;10.41;100.00;99770.06;5057560;28;19917;-64
2021/05/29 02:50:17;;;;;;;;;;;;;;;10.70;100.00;99770.34;5036898;28;19925;-64
2021/05/29 02:52:42;;;;;;;;;;;;;;;11.12;100.00;99773.78;5052661;28;19932;-63
2021/05/29 02:55:10;;;;;;;;;;;;;;;10.89;100.00;99772.53;5053080;28;19921;-63
2021/05/29 02:57:35;;;;;;;;;;;;;;;10.88;100.00;99770.84;5059576;28;19971;-64
2021/05/29 03:00:01;;;;;;;;;;;;;;;10.70;100.00;99765.22;5035116;28;19913;-64
2021/05/29 03:02:26;;;;;;;;;;;;;;;10.29;100.00;99775.44;5056024;28;19920;-64
2021/05/29 03:04:51;;;;;;;;;;;;;;;10.33;100.00;99774.53;5035465;28;19951;-64
2021/05/29 03:07:17;;;;;;;;;;;;;;;10.10;100.00;99771.47;5054804;28;19920;-64
2021/05/29 03:09:42;;;;;;;;;;;;;;;9.88;100.00;99774.41;5034718;28;19920;-64
2021/05/29 03:12:08;;;;;;;;;;;;;;;9.98;100.00;99773.38;5058248;28;20305;-64
2021/05/29 03:14:33;;;;;;;;;;;;;;;9.52;100.00;99781.00;5054568;28;20306;-64
2021/05/29 03:16:59;;;;;;;;;;;;;;;9.80;100.00;99783.97;5053432;28;19920;-64
2021/05/29 03:19:24;;;;;;;;;;;;;;;9.66;100.00;99783.34;5037701;28;19970;-63
2021/05/29 03:21:49;;;;;;;;;;;;;;;9.64;100.00;99781.63;5055476;28;20007;-63
2021/05/29 03:24:14;;;;;;;;;;;;;;;9.67;100.00;99779.91;5055346;28;19928;-64
2021/05/29 03:26:40;;;;;;;;;;;;;;;9.55;100.00;99786.91;5053036;28;19928;-64
2021/05/29 03:29:05;;;;;;;;;;;;;;;9.37;100.00;99787.19;5035653;28;20034;-63
2021/05/29 03:31:31;;;;;;;;;;;;;;;9.47;100.00;99778.50;5055263;28;19985;-63
2021/05/29 03:33:56;;;;;;;;;;;;;;;9.47;100.00;99783.63;5055131;28;19983;-64
2021/05/29 03:36:22;;;;;;;;;;;;;;;9.76;100.00;99784.88;5053532;28;19916;-64
2021/05/29 03:38:47;;;;;;;;;;;;;;;9.53;100.00;99788.66;5054101;28;19970;-64
2021/05/29 03:41:13;;;;;;;;;;;;;;;9.70;100.00;99791.00;5054820;28;19916;-63
2021/05/29 03:43:38;;;;;;;;;;;;;;;9.80;100.00;99787.38;5049173;28;19967;-64
2021/05/29 03:46:04;;;;;;;;;;;;;;;9.73;100.00;99790.09;5057108;28;19994;-64
2021/05/29 03:48:29;;;;;;;;;;;;;;;8.98;100.00;99794.56;5053348;28;19916;-64
2021/05/29 03:50:54;;;;;;;;;;;;;;;8.88;100.00;99791.28;5055767;28;19963;-64
2021/05/29 03:53:20;;;;;;;;;;;;;;;9.13;100.00;99798.69;5050528;28;20309;-64
2021/05/29 03:55:45;;;;;;;;;;;;;;;9.35;100.00;99799.22;5055190;28;19932;-63
2021/05/29 03:58:10;;;;;;;;;;;;;;;9.53;100.00;99796.38;5035776;28;19920;-64
2021/05/29 04:00:36;;;;;;;;;;;;;;;9.82;100.00;99798.50;5049805;28;19921;-64
2021/05/29 04:03:02;;;;;;;;;;;;;;;9.55;100.00;99806.66;5053298;28;20007;-63
2021/05/29 04:05:27;;;;;;;;;;;;;;;9.11;100.00;99805.56;5056587;28;20019;-64
2021/05/29 04:07:52;;;;;;;;;;;;;;;8.54;100.00;99808.81;5032379;28;19967;-63
2021/05/29 04:10:22;;;;;;;;;;;;;;;9.23;100.00;99799.41;5054077;28;19955;-64
2021/05/29 04:12:47;;;;;;;;;;;;;;;9.55;100.00;99802.34;5053823;28;20367;-64
2021/05/29 04:15:14;;;;;;;;;;;;;;;10.13;100.00;99804.88;5052489;28;19923;-64
2021/05/29 04:17:39;;;;;;;;;;;;;;;10.37;100.00;99806.19;5034623;28;20318;-64
2021/05/29 04:20:05;;;;;;;;;;;;;;;9.94;100.00;99815.47;5055789;28;19943;-64
2021/05/29 04:22:30;;;;;;;;;;;;;;;9.74;100.00;99812.34;5049692;28;20004;-63
2021/05/29 04:24:56;;;;;;;;;;;;;;;10.18;100.00;99823.66;5051276;28;19986;-64
2021/05/29 04:27:21;;;;;;;;;;;;;;;10.48;100.00;99821.44;5052965;28;20417;-63
2021/05/29 04:29:46;;;;;;;;;;;;;;;10.71;100.00;99824.44;5055226;28;19923;-64
2021/05/29 04:32:12;;;;;;;;;;;;;;;10.97;100.00;99835.94;5051917;28;19920;-64
2021/05/29 04:34:37;;;;;;;;;;;;;;;11.28;100.00;99831.84;5051726;28;20019;-64
2021/05/29 04:37:03;;;;;;;;;;;;;;;11.44;100.00;99828.94;5052710;28;20385;-64
2021/05/29 04:39:29;;;;;;;;;;;;;;;11.64;100.00;99839.66;5055029;28;20008;-63
2021/05/29 04:41:54;;;;;;;;;;;;;;;11.83;100.00;99834.06;5053778;28;19913;-64
2021/05/29 04:44:19;;;;;;;;;;;;;;;11.98;100.00;99838.91;5053262;28;19923;-64
2021/05/29 04:46:52;;;;;;;;;;;;;;;12.07;100.00;99836.09;5049369;28;19912;-64
2021/05/29 04:49:21;;;;;;;;;;;;;;;12.20;100.00;99843.53;5050687;28;19963;-63
2021/05/29 04:51:46;;;;;;;;;;;;;;;12.29;100.00;99846.75;5048300;28;20237;-64
2021/05/29 04:54:12;;;;;;;;;;;;;;;12.32;100.00;99843.25;5057023;28;20019;-64
2021/05/29 04:56:37;;;;;;;;;;;;;;;12.23;100.00;99849.47;5057215;28;20031;-64
2021/05/29 04:59:02;;;;;;;;;;;;;;;12.13;100.00;99848.88;5039102;28;19917;-64
2021/05/29 05:01:31;;;;;;;;;;;;;;;12.29;100.00;99854.50;5037085;28;19967;-64
2021/05/29 05:03:58;;;;;;;;;;;;;;;12.67;100.00;99851.78;5058189;28;20408;-64
2021/05/29 05:06:23;;;;;;;;;;;;;;;12.33;100.00;99863.00;5055538;28;19916;-64
2021/05/29 05:08:48;;;;;;;;;;;;;;;12.50;100.00;99858.25;5058469;28;19946;-63
2021/05/29 05:11:14;;;;;;;;;;;;;;;12.37;100.00;99866.38;5058111;28;20511;-64
2021/05/29 05:13:39;;;;;;;;;;;;;;;11.83;100.00;99865.03;5060163;28;19966;-63
2021/05/29 05:16:05;;;;;;;;;;;;;;;11.55;100.00;99865.66;5057170;28;19917;-63
2021/05/29 05:18:30;;;;;;;;;;;;;;;12.53;100.00;99865.91;5042561;28;20353;-63
2021/05/29 05:20:55;;;;;;;;;;;;;;;12.75;100.00;99867.94;5055221;28;19920;-63
2021/05/29 05:23:22;;;;;;;;;;;;;;;12.24;100.00;99870.97;5056582;28;20321;-63
2021/05/29 05:25:48;;;;;;;;;;;;;;;12.47;100.00;99878.97;5058492;28;19920;-63
2021/05/29 05:28:14;;;;;;;;;;;;;;;12.25;100.00;99881.28;5060521;28;20388;-63
2021/05/29 05:30:39;;;;;;;;;;;;;;;11.55;100.00;99873.41;5034589;28;20003;-63
2021/05/29 05:33:06;;;;;;;;;;;;;;;11.78;100.00;99872.06;5036161;28;19975;-63
2021/05/29 05:35:31;;;;;;;;;;;;;;;11.81;100.00;99864.22;5036609;28;19918;-63
2021/05/29 05:37:57;;;;;;;;;;;;;;;12.49;100.00;99864.28;5002178;28;19913;-63
2021/05/29 05:40:22;;;;;;;;;;;;;;;11.89;100.00;99863.19;5027238;28;20461;-63
2021/05/29 05:42:48;;;;;;;;;;;;;;;12.50;100.00;99866.00;5026031;28;19968;-63
2021/05/29 05:45:13;;;;;;;;;;;;;;;12.45;100.00;99870.44;5028369;28;19917;-63
2021/05/29 05:47:39;;;;;;;;;;;;;;;12.65;100.00;99866.47;5029235;28;19920;-63
2021/05/29 05:50:05;;;;;;;;;;;;;;;12.28;100.00;99867.44;5010553;28;19923;-63
2021/05/29 05:52:30;;;;;;;;;;;;;;;12.88;100.00;99869.28;5008529;28;19960;-65
2021/05/29 05:54:56;;;;;;;;;;;;;;;12.88;100.00;99869.28;5017699;28;19953;-65
2021/05/29 05:57:21;;;;;;;;;;;;;;;12.75;100.00;99873.13;5031110;28;19959;-65
2021/05/29 05:59:46;;;;;;;;;;;;;;;11.67;100.00;99878.28;5029500;28;19913;-64
2021/05/29 06:02:12;;;;;;;;;;;;;;;12.51;100.00;99880.59;5013962;28;19913;-65
2021/05/29 06:04:37;;;;;;;;;;;;;;;12.39;100.00;99875.75;5039052;28;19921;-65
2021/05/29 06:07:02;;;;;;;;;;;;;;;11.62;100.00;99872.38;5033679;28;19920;-65
2021/05/29 06:09:28;;;;;;;;;;;;;;;11.38;100.00;99878.94;5028479;28;19913;-65
2021/05/29 06:11:54;;;;;;;;;;;;;;;12.27;100.00;99883.81;5021024;28;20366;-64
2021/05/29 06:19:48;;;;;;;;;;;;;;;12.32;100.00;99889.72;5017774;28;19920;-65
2021/05/29 06:22:13;;;;;;;;;;;;;;;11.78;100.00;99890.97;5031374;28;19913;-65
2021/05/29 06:24:38;;;;;;;;;;;;;;;11.61;100.00;99900.78;5042632;28;19924;-65
2021/05/29 06:27:04;;;;;;;;;;;;;;;11.88;100.00;99895.06;5029793;28;19921;-65
2021/05/29 06:29:29;;;;;;;;;;;;;;;12.35;100.00;99907.72;5034178;28;19920;-64
2021/05/29 06:31:55;;;;;;;;;;;;;;;11.68;100.00;99902.38;5028009;28;19921;-64
2021/05/29 06:34:20;;;;;;;;;;;;;;;12.07;100.00;99903.22;5032137;28;20374;-65
2021/05/29 06:36:46;;;;;;;;;;;;;;;12.18;100.00;99902.09;5033168;28;20006;-65
2021/05/29 06:39:11;;;;;;;;;;;;;;;12.12;100.00;99906.53;5032798;28;19913;-65
2021/05/29 06:41:39;;;;;;;;;;;;;;;12.67;100.00;99908.66;5031685;28;20378;-65
2021/05/29 06:44:04;;;;;;;;;;;;;;;12.07;100.00;99910.97;5032202;28;20400;-65
2021/05/29 06:46:30;;;;;;;;;;;;;;;11.79;100.00;99912.44;5041622;28;19922;-65
2021/05/29 06:48:56;;;;;;;;;;;;;;;12.13;100.00;99918.59;5035308;28;19913;-65
2021/05/29 06:51:35;;;;;;;;;;;;;;;12.66;100.00;99917.31;5036688;28;19960;-65
2021/05/29 06:54:34;;;;;;;;;;;;;;;12.62;100.00;99918.25;5032657;28;20047;-65
2021/05/29 06:59:30;;;;;;;;;;;;;;;12.07;100.00;99923.03;5027452;28;20415;-65
2021/05/29 07:01:56;;;;;;;;;;;;;;;12.20;100.00;99928.75;5047778;28;19912;-64
2021/05/29 07:04:21;;;;;;;;;;;;;;;11.25;100.00;99924.75;5046480;28;19978;-64
2021/05/29 07:06:46;;;;;;;;;;;;;;;11.79;100.00;99926.22;5037527;28;19936;-64
2021/05/29 07:09:14;;;;;;;;;;;;;;;12.79;100.00;99929.00;5037238;28;19913;-64
2021/05/29 07:11:40;;;;;;;;;;;;;;;11.82;100.00;99926.13;5037870;28;19912;-64
2021/05/29 07:14:06;;;;;;;;;;;;;;;11.62;100.00;99939.47;5033276;28;19982;-63
2021/05/29 07:16:34;;;;;;;;;;;;;;;11.79;100.00;99933.09;5033771;28;19913;-63
2021/05/29 07:18:59;;;;;;;;;;;;;;;12.54;100.00;99939.09;5036618;28;20366;-63
2021/05/29 07:21:24;;;;;;;;;;;;;;;11.69;100.00;99938.44;5038618;28;19967;-63
2021/05/29 07:23:50;;;;;;;;;;;;;;;12.30;100.00;99948.31;5033464;28;20353;-63
2021/05/29 07:26:15;;;;;;;;;;;;;;;12.69;100.00;99955.97;5040423;28;20469;-63
2021/05/29 07:28:40;;;;;;;;;;;;;;;13.31;100.00;99950.88;5034787;28;19940;-63
2021/05/29 07:31:06;;;;;;;;;;;;;;;12.92;100.00;99958.81;5035172;28;20003;-63
2021/05/29 07:33:31;;;;;;;;;;;;;;;12.86;100.00;99956.38;5053483;28;19913;-63
2021/05/29 07:35:58;;;;;;;;;;;;;;;12.86;100.00;99958.94;5053869;28;20354;-63
2021/05/29 07:38:23;;;;;;;;;;;;;;;12.53;100.00;99964.09;5051904;28;19924;-63
2021/05/29 07:40:49;;;;;;;;;;;;;;;12.20;100.00;99967.47;5037011;28;20325;-63
2021/05/29 07:43:15;;;;;;;;;;;;;;;12.49;100.00;99965.06;5032766;28;20033;-62
2021/05/29 07:45:40;;;;;;;;;;;;;;;12.50;100.00;99971.94;5050524;28;19917;-62
2021/05/29 07:48:08;;;;;;;;;;;;;;;12.56;100.00;99965.75;5019834;28;19978;-62
2021/05/29 07:50:33;;;;;;;;;;;;;;;12.98;100.00;99966.41;5056333;28;19961;-62
2021/05/29 07:53:01;;;;;;;;;;;;;;;13.52;100.00;99961.53;5055466;28;20477;-62
2021/05/29 07:55:26;;;;;;;;;;;;;;;12.28;100.00;99965.59;5039773;28;20328;-62
2021/05/29 07:57:51;;;;;;;;;;;;;;;12.64;100.00;99963.00;5057122;28;19916;-62
2021/05/29 08:00:22;;;;;;;;;;;;;;;13.51;100.00;99965.00;5051152;28;20459;-62
2021/05/29 08:02:47;;;;;;;;;;;;;;;13.98;100.00;99957.56;5051971;28;20027;-62
2021/05/29 08:05:17;;;;;;;;;;;;;;;13.75;100.00;99961.72;5038255;28;20003;-62
2021/05/29 08:07:42;;;;;;;;;;;;;;;13.29;100.00;99965.59;5051714;28;20014;-63
2021/05/29 08:10:08;;;;;;;;;;;;;;;13.76;100.00;99963.41;5033402;28;20007;-63
2021/05/29 08:12:33;;;;;;;;;;;;;;;14.22;100.00;99969.75;5053449;28;19917;-62
2021/05/29 08:14:59;;;;;;;;;;;;;;;14.25;100.00;99968.81;5052867;28;19916;-63
2021/05/29 08:17:24;;;;;;;;;;;;;;;14.82;100.00;99965.28;5036073;28;19916;-63
2021/05/29 08:19:50;;;;;;;;;;;;;;;14.74;100.00;99969.84;5055051;28;19955;-63
2021/05/29 08:22:15;;;;;;;;;;;;;;;13.77;100.00;99974.59;5051166;28;19925;-63
2021/05/29 08:24:41;;;;;;;;;;;;;;;14.43;100.00;99976.00;5035572;28;19931;-63
2021/05/29 08:27:06;;;;;;;;;;;;;;;13.37;100.00;99979.19;5053117;28;19920;-63
2021/05/29 08:29:31;;;;;;;;;;;;;;;14.30;100.00;99968.66;5057600;28;21423;-63
2021/05/29 08:31:57;;;;;;;;;;;;;;;13.72;100.00;99972.16;5055473;28;19925;-62
2021/05/29 08:34:22;;;;;;;;;;;;;;;15.07;100.00;99977.38;5035469;28;19920;-63
2021/05/29 08:36:47;;;;;;;;;;;;;;;13.57;100.00;99980.34;5051133;28;19917;-63
2021/05/29 08:39:13;;;;;;;;;;;;;;;13.73;100.00;99979.03;5052179;28;19916;-63
2021/05/29 08:41:39;;;;;;;;;;;;;;;13.42;100.00;99973.03;5050743;28;20323;-63
2021/05/29 08:44:05;;;;;;;;;;;;;;;13.69;100.00;99974.00;5031965;28;19975;-63
2021/05/29 08:46:30;;;;;;;;;;;;;;;14.47;100.00;99963.81;5053446;28;20047;-63
2021/05/29 08:48:57;;;;;;;;;;;;;;;15.98;100.00;99971.50;5053896;28;20000;-63
2021/05/29 08:51:22;;;;;;;;;;;;;;;15.95;100.00;99966.41;5051644;28;19995;-63
2021/05/29 08:53:49;;;;;;;;;;;;;;;15.01;100.00;99980.19;5051971;28;20023;-63
2021/05/29 08:56:15;;;;;;;;;;;;;;;13.15;100.00;99984.06;5052802;28;19929;-62
2021/05/29 08:58:40;;;;;;;;;;;;;;;13.06;100.00;99991.22;5052295;28;19959;-63
2021/05/29 09:01:06;;;;;;;;;;;;;;;13.97;100.00;99986.97;5052610;28;19927;-63
2021/05/29 09:03:50;;;;;;;;;;;;;;;13.83;100.00;99992.56;5054196;28;20243;-63
2021/05/29 09:06:19;;;;;;;;;;;;;;;13.07;100.00;99993.78;5051595;28;20035;-63
2021/05/29 09:08:54;;;;;;;;;;;;;;;14.14;100.00;99984.72;5052777;28;19944;-63
2021/05/29 09:11:49;;;;;;;;;;;;;;;13.50;100.00;99997.81;5049674;28;19927;-63
2021/05/29 09:14:35;;;;;;;;;;;;;;;13.36;100.00;99995.63;5050066;28;19917;-63
2021/05/29 09:17:14;;;;;;;;;;;;;;;12.93;100.00;99995.84;5034134;28;19924;-63
2021/05/29 09:19:59;;;;;;;;;;;;;;;14.29;100.00;99998.06;5050158;28;19940;-63
2021/05/29 09:22:31;;;;;;;;;;;;;;;13.16;100.00;100010.78;5052403;28;19917;-63
2021/05/29 09:25:04;;;;;;;;;;;;;;;14.02;100.00;100011.81;5049459;28;19924;-64
2021/05/29 09:27:31;;;;;;;;;;;;;;;14.22;100.00;100007.78;5049636;28;20370;-64
2021/05/29 09:29:57;;;;;;;;;;;;;;;14.06;100.00;100010.00;5054262;28;19912;-63
2021/05/29 09:32:22;;;;;;;;;;;;;;;14.92;100.00;100009.03;5030612;28;19936;-63
2021/05/29 09:35:01;;;;;;;;;;;;;;;15.54;100.00;100005.97;5022295;28;20389;-63
2021/05/29 09:37:27;;;;;;;;;;;;;;;15.77;100.00;100004.31;5018285;28;19914;-64
2021/05/29 09:39:54;;;;;;;;;;;;;;;15.73;100.00;100008.78;5016156;28;19963;-63
2021/05/29 09:42:25;;;;;;;;;;;;;;;15.50;100.00;100021.72;5033085;28;20298;-63
2021/05/29 09:44:50;;;;;;;;;;;;;;;16.07;100.00;100015.31;5027585;28;19917;-63
2021/05/29 09:47:17;;;;;;;;;;;;;;;15.05;100.00;100015.47;5031810;28;19917;-64
2021/05/29 09:49:48;;;;;;;;;;;;;;;15.29;100.00;100011.22;5017716;28;20402;-63
2021/05/29 09:52:32;;;;;;;;;;;;;;;15.34;100.00;100011.88;5027561;28;19914;-63
2021/05/29 09:55:07;;;;;;;;;;;;;;;14.95;100.00;100012.38;5033257;28;19913;-63
2021/05/29 09:57:50;;;;;;;;;;;;;;;14.69;100.00;100020.16;5014661;28;19913;-63
2021/05/29 10:00:16;;;;;;;;;;;;;;;14.16;100.00;100014.00;5017706;28;19917;-63
2021/05/29 10:03:00;;;;;;;;;;;;;;;14.78;100.00;100010.34;5030934;28;20039;-63
2021/05/29 10:05:26;;;;;;;;;;;;;;;15.28;100.00;100017.31;5033590;28;19918;-63
2021/05/29 10:07:52;;;;;;;;;;;;;;;16.20;100.00;100013.94;5027087;28;19913;-63
2021/05/29 10:10:17;;;;;;;;;;;;;;;15.60;100.00;100012.69;5032703;28;19944;-63
2021/05/29 10:12:42;;;;;;;;;;;;;;;16.24;100.00;100010.31;5011027;28;19913;-63
2021/05/29 10:15:11;;;;;;;;;;;;;;;15.24;100.00;100020.91;5002182;28;19922;-63
2021/05/29 10:17:36;;;;;;;;;;;;;;;13.70;100.00;100019.69;5031775;28;19913;-63
2021/05/29 10:20:03;;;;;;;;;;;;;;;14.06;100.00;100017.75;5015569;28;19958;-63
2021/05/29 10:22:28;;;;;;;;;;;;;;;15.04;100.00;100013.81;5032924;28;20271;-63
2021/05/29 10:24:54;;;;;;;;;;;;;;;13.51;100.00;100024.53;5012315;28;19921;-63
2021/05/29 10:27:24;;;;;;;;;;;;;;;14.10;100.00;100019.38;5030131;28;19913;-62
2021/05/29 10:29:53;;;;;;;;;;;;;;;14.61;100.00;100012.63;5032537;28;19963;-62
2021/05/29 10:32:19;;;;;;;;;;;;;;;13.53;100.00;100017.59;5028385;28;20015;-63
2021/05/29 10:35:22;;;;;;;;;;;;;;;13.80;100.00;100024.56;5027844;28;20039;-63
2021/05/29 10:37:54;;;;;;;;;;;;;;;13.93;100.00;100016.44;4933469;29;19967;-63
2021/05/29 10:40:22;;;;;;;;;;;;;;;14.32;100.00;100013.50;4933248;29;19949;-63
2021/05/29 10:42:54;;;;;;;;;;;;;;;14.32;100.00;100013.50;4980119;28;20345;-64
2021/05/29 10:45:21;;;;;;;;;;;;;;;13.44;100.00;100017.84;4993831;28;19918;-64
2021/05/29 10:48:05;;;;;;;;;;;;;;;14.61;100.00;100015.22;5018107;28;19913;-64
2021/05/29 10:51:09;;;;;;;;;;;;;;;14.31;100.00;100006.66;5027665;28;20313;-64
2021/05/29 10:53:45;;;;;;;;;;;;;;;14.64;100.00;100013.41;5026065;28;19913;-64
2021/05/29 10:56:16;;;;;;;;;;;;;;;14.69;100.00;100007.19;5025619;28;20418;-64
2021/05/29 10:58:54;;;;;;;;;;;;;;;14.51;100.00;100019.00;5011507;28;20379;-64
2021/05/29 11:01:19;;;;;;;;;;;;;;;14.78;100.00;100012.06;5024361;28;19913;-64
2021/05/29 11:03:45;;;;;;;;;;;;;;;15.33;100.00;100015.41;5010543;28;20285;-64
2021/05/29 11:06:30;;;;;;;;;;;;;;;16.75;100.00;100010.03;5014007;28;19917;-64
2021/05/29 11:08:58;;;;;;;;;;;;;;;17.86;95.62;100013.91;5006696;28;20321;-64
2021/05/29 11:14:12;;;;;;;;;;;;;;;15.04;100.00;100019.00;5012798;28;20056;-64
2021/05/29 11:16:47;;;;;;;;;;;;;;;14.06;100.00;100022.09;4997602;28;20008;-64
2021/05/29 11:19:29;;;;;;;;;;;;;;;14.95;100.00;100014.97;5025030;28;19928;-64
2021/05/29 11:22:13;;;;;;;;;;;;;;;14.33;100.00;100021.25;5026877;28;20011;-64
2021/05/29 11:24:43;;;;;;;;;;;;;;;14.52;100.00;100008.56;5026896;28;19917;-64
2021/05/29 11:27:09;;;;;;;;;;;;;;;14.17;100.00;100015.69;5021391;28;19913;-64
2021/05/29 11:29:47;;;;;;;;;;;;;;;14.17;100.00;100012.25;5026730;28;19917;-63
2021/05/29 11:32:13;;;;;;;;;;;;;;;14.88;100.00;100007.44;5031764;28;19920;-63
2021/05/29 11:34:42;;;;;;;;;;;;;;;15.06;100.00;100017.19;5026733;28;19920;-63
2021/05/29 11:37:13;;;;;;;;;;;;;;;14.76;100.00;100019.06;5053206;28;19913;-63
2021/05/29 11:39:49;;;;;;;;;;;;;;;15.08;100.00;100020.59;5026839;28;19966;-63
2021/05/29 11:42:14;;;;;;;;;;;;;;;14.43;100.00;100016.63;5052326;28;20372;-63
2021/05/29 11:44:39;;;;;;;;;;;;;;;14.95;100.00;100020.16;5054353;28;19939;-63
2021/05/29 11:47:11;;;;;;;;;;;;;;;15.41;100.00;100018.53;5053840;28;19916;-63
2021/05/29 11:49:37;;;;;;;;;;;;;;;16.55;100.00;100018.63;5010465;28;19923;-62
2021/05/29 11:52:02;;;;;;;;;;;;;;;15.78;96.55;100022.47;5028187;28;19917;-63
2021/05/29 11:54:32;;;;;;;;;;;;;;;14.83;100.00;100020.56;5054577;28;19916;-62
2021/05/29 11:56:57;;;;;;;;;;;;;;;14.74;100.00;100013.09;5031434;28;19912;-64
2021/05/29 11:59:22;;;;;;;;;;;;;;;15.17;100.00;100020.28;5059483;28;19913;-63
2021/05/29 12:01:51;;;;;;;;;;;;;;;15.76;100.00;100019.06;5048606;28;20359;-63
2021/05/29 12:04:26;;;;;;;;;;;;;;;15.87;100.00;100018.66;5035041;28;19947;-64
2021/05/29 12:06:56;;;;;;;;;;;;;;;15.56;100.00;100017.16;5035782;28;20360;-64
2021/05/29 12:09:21;;;;;;;;;;;;;;;15.46;100.00;100019.25;5052809;28;19960;-64
2021/05/29 12:11:50;;;;;;;;;;;;;;;14.57;100.00;100019.69;5056625;28;19982;-64
2021/05/29 12:14:19;;;;;;;;;;;;;;;15.76;100.00;100020.78;5055157;28;19912;-63
2021/05/29 12:16:52;;;;;;;;;;;;;;;16.27;100.00;100014.53;5055254;28;21149;-63
2021/05/29 12:19:31;;;;;;;;;;;;;;;17.31;94.69;100015.47;5055166;28;20581;-63
2021/05/29 12:21:57;;;;;;;;;;;;;;;15.86;91.60;100020.41;5051442;28;20007;-63
2021/05/29 12:24:23;;;;;;;;;;;;;;;16.36;100.00;100016.78;5053750;28;20454;-63
2021/05/29 12:26:49;;;;;;;;;;;;;;;16.07;100.00;100017.91;5055090;28;19921;-63
2021/05/29 12:29:21;;;;;;;;;;;;;;;16.62;95.73;100015.72;5036590;28;19923;-63
2021/05/29 12:31:51;;;;;;;;;;;;;;;16.75;94.06;100010.03;5032913;28;19921;-63
2021/05/29 12:34:17;;;;;;;;;;;;;;;16.97;96.54;100005.66;5048054;28;19923;-63
2021/05/29 12:36:52;;;;;;;;;;;;;;;17.14;98.39;100005.75;5054382;28;19912;-64
2021/05/29 12:39:19;;;;;;;;;;;;;;;15.48;100.00;100014.81;5045375;28;20554;-63
2021/05/29 12:41:45;;;;;;;;;;;;;;;16.79;94.29;100006.41;5049053;28;20285;-63
2021/05/29 12:44:11;;;;;;;;;;;;;;;16.51;92.54;100007.50;5048760;28;19952;-64
2021/05/29 12:46:36;;;;;;;;;;;;;;;17.88;82.06;100010.34;5053856;28;19970;-63
2021/05/29 12:49:01;;;;;;;;;;;;;;;18.77;78.54;100003.53;5030339;28;19921;-63